createdAt,value
2022-11-21T00:01:18.019Z,95.30
2022-11-21T00:03:45.788Z,95.20
2022-11-21T00:06:13.603Z,95.30
2022-11-21T00:08:41.332Z,95.30
2022-11-21T00:11:09.071Z,95.00
2022-11-21T00:13:37.028Z,95.40
2022-11-21T00:16:06.011Z,95.40
2022-11-21T00:18:36.248Z,94.30
2022-11-21T00:21:06.715Z,94.60
2022-11-21T00:23:34.939Z,94.20
2022-11-21T00:26:05.969Z,94.00
2022-11-21T00:28:34.123Z,94.20
2022-11-21T00:31:01.839Z,94.10
2022-11-21T00:33:29.558Z,93.70
2022-11-21T00:35:58.611Z,93.70
2022-11-21T00:38:27.888Z,94.10
2022-11-21T00:40:55.543Z,93.50
2022-11-21T00:43:23.496Z,93.70
2022-11-21T00:45:51.238Z,94.30
2022-11-21T00:48:18.910Z,95.20
2022-11-21T00:50:49.819Z,95.70
2022-11-21T00:53:18.846Z,96.10
2022-11-21T00:55:46.518Z,96.10
2022-11-21T00:58:14.256Z,96.20
2022-11-21T01:00:42.026Z,96.40
2022-11-21T01:03:09.883Z,96.70
2022-11-21T01:05:37.587Z,96.80
2022-11-21T01:08:05.607Z,96.80
2022-11-21T01:10:34.984Z,96.80
2022-11-21T01:13:02.731Z,96.80
2022-11-21T01:15:30.467Z,96.80
2022-11-21T01:17:58.166Z,96.80
2022-11-21T01:20:25.843Z,96.80
2022-11-21T01:22:53.542Z,96.80
2022-11-21T01:25:21.386Z,96.80
2022-11-21T01:27:50.414Z,96.80
2022-11-21T01:30:18.181Z,96.80
2022-11-21T01:32:49.272Z,96.80
2022-11-21T01:35:17.063Z,96.80
2022-11-21T01:37:47.915Z,96.80
2022-11-21T01:40:16.283Z,96.80
2022-11-21T01:42:52.978Z,96.80
2022-11-21T01:45:50.498Z,96.80
2022-11-21T01:48:18.390Z,96.80
2022-11-21T01:50:46.511Z,96.80
2022-11-21T01:53:14.227Z,96.80
2022-11-21T01:55:42.199Z,96.80
2022-11-21T01:58:11.875Z,96.80
2022-11-21T02:00:41.470Z,96.80
2022-11-21T02:03:13.586Z,96.80
2022-11-21T02:05:42.182Z,96.80
2022-11-21T02:08:14.750Z,96.80
2022-11-21T02:10:48.746Z,96.80
2022-11-21T02:13:17.967Z,96.80
2022-11-21T02:15:45.738Z,96.80
2022-11-21T02:18:13.749Z,96.80
2022-11-21T02:20:42.603Z,96.80
2022-11-21T02:23:15.258Z,96.80
2022-11-21T02:25:44.551Z,96.80
2022-11-21T02:28:15.333Z,96.80
2022-11-21T02:30:44.447Z,96.80
2022-11-21T02:33:13.298Z,96.80
2022-11-21T02:35:41.495Z,96.80
2022-11-21T02:38:17.766Z,96.80
2022-11-21T02:40:55.874Z,96.80
2022-11-21T02:43:25.546Z,96.80
2022-11-21T02:45:53.291Z,96.80
2022-11-21T02:48:20.949Z,96.80
2022-11-21T02:50:48.857Z,96.80
2022-11-21T02:53:19.654Z,96.80
2022-11-21T02:55:48.682Z,96.80
2022-11-21T02:58:16.414Z,96.80
2022-11-21T03:00:44.975Z,96.80
2022-11-21T03:03:12.763Z,96.80
2022-11-21T03:05:41.078Z,96.80
2022-11-21T03:08:10.095Z,96.80
2022-11-21T03:10:38.310Z,96.80
2022-11-21T03:13:07.751Z,96.80
2022-11-21T03:15:36.222Z,96.80
2022-11-21T03:18:05.187Z,96.80
2022-11-21T03:20:34.283Z,96.40
2022-11-21T03:23:02.619Z,96.60
2022-11-21T03:25:30.297Z,96.80
2022-11-21T03:27:58.064Z,96.60
2022-11-21T03:30:27.674Z,96.30
2022-11-21T03:32:56.262Z,96.00
2022-11-21T03:35:24.384Z,96.00
2022-11-21T03:37:52.147Z,95.90
2022-11-21T03:40:19.912Z,95.90
2022-11-21T03:42:47.626Z,95.80
2022-11-21T03:45:15.437Z,95.90
2022-11-21T03:47:44.410Z,95.80
2022-11-21T03:50:14.978Z,95.40
2022-11-21T03:52:42.662Z,95.40
2022-11-21T03:55:10.580Z,95.20
2022-11-21T03:57:38.302Z,95.60
2022-11-21T04:00:06.423Z,95.70
2022-11-21T04:02:34.127Z,95.30
2022-11-21T04:05:03.098Z,95.20
2022-11-21T04:07:30.811Z,95.30
2022-11-21T04:09:58.598Z,95.40
2022-11-21T04:12:26.293Z,95.50
2022-11-21T04:14:54.023Z,95.00
2022-11-21T04:17:21.662Z,95.20
2022-11-21T04:19:49.365Z,95.30
2022-11-21T04:22:18.498Z,94.80
2022-11-21T04:24:46.145Z,95.00
2022-11-21T04:27:13.839Z,94.90
2022-11-21T04:29:41.517Z,95.30
2022-11-21T04:32:09.482Z,94.90
2022-11-21T04:34:37.932Z,95.10
2022-11-21T04:37:11.244Z,94.90
2022-11-21T04:39:40.699Z,95.10
2022-11-21T04:42:08.412Z,95.50
2022-11-21T04:44:36.271Z,95.90
2022-11-21T04:47:05.784Z,96.10
2022-11-21T04:49:33.785Z,96.30
2022-11-21T04:52:01.461Z,96.30
2022-11-21T04:54:29.529Z,95.90
2022-11-21T04:56:58.875Z,95.80
2022-11-21T04:59:26.555Z,95.70
2022-11-21T05:01:54.347Z,95.80
2022-11-21T05:04:22.027Z,96.00
2022-11-21T05:06:49.670Z,95.90
2022-11-21T05:09:17.352Z,95.70
2022-11-21T05:11:59.061Z,95.70
2022-11-21T05:14:28.755Z,95.90
2022-11-21T05:16:57.138Z,96.10
2022-11-21T05:19:24.858Z,96.60
2022-11-21T05:21:52.583Z,96.70
2022-11-21T05:24:20.283Z,96.70
2022-11-21T05:26:47.966Z,96.50
2022-11-21T05:29:15.663Z,96.40
2022-11-21T05:31:44.650Z,96.10
2022-11-21T05:34:12.314Z,96.00
2022-11-21T05:36:40.010Z,96.10
2022-11-21T05:39:07.876Z,96.00
2022-11-21T05:41:35.562Z,96.00
2022-11-21T05:44:02.474Z,96.10
2022-11-21T05:46:30.199Z,96.30
2022-11-21T05:48:59.366Z,96.20
2022-11-21T05:51:27.054Z,96.10
2022-11-21T05:53:54.803Z,95.90
2022-11-21T05:56:22.535Z,95.60
2022-11-21T05:58:50.266Z,95.50
2022-11-21T06:01:38.196Z,95.50
2022-11-21T06:04:07.358Z,95.60
2022-11-21T06:06:35.546Z,95.00
2022-11-21T06:09:04.633Z,95.30
2022-11-21T06:11:32.370Z,95.40
2022-11-21T06:14:00.155Z,95.60
2022-11-21T06:16:28.112Z,95.60
2022-11-21T06:18:58.610Z,95.70
2022-11-21T06:21:29.894Z,95.50
2022-11-21T06:23:59.165Z,95.30
2022-11-21T06:26:28.153Z,95.20
2022-11-21T06:28:56.262Z,95.20
2022-11-21T06:31:26.768Z,95.00
2022-11-21T06:33:55.353Z,95.00
2022-11-21T06:36:23.696Z,95.00
2022-11-21T06:38:54.651Z,94.90
2022-11-21T06:41:24.724Z,94.90
2022-11-21T06:43:53.120Z,95.00
2022-11-21T06:46:20.808Z,94.20
2022-11-21T06:48:48.727Z,94.30
2022-11-21T06:51:19.181Z,94.80
2022-11-21T06:53:55.652Z,94.60
2022-11-21T06:56:25.697Z,94.30
2022-11-21T06:58:53.545Z,94.10
2022-11-21T07:01:21.600Z,94.00
2022-11-21T07:03:49.339Z,93.80
2022-11-21T07:06:21.953Z,93.60
2022-11-21T07:09:17.473Z,92.90
2022-11-21T07:11:42.263Z,93.00
2022-11-21T07:14:09.624Z,93.20
2022-11-21T07:16:37.883Z,93.40
2022-11-21T07:19:05.665Z,93.50
2022-11-21T07:21:33.429Z,93.50
2022-11-21T07:24:01.085Z,92.70
2022-11-21T07:26:28.783Z,92.90
2022-11-21T07:28:59.103Z,93.20
2022-11-21T07:31:27.243Z,93.20
2022-11-21T07:33:54.961Z,93.20
2022-11-21T07:36:24.412Z,93.30
2022-11-21T07:38:52.140Z,94.10
2022-11-21T07:41:19.955Z,94.00
2022-11-21T07:43:47.658Z,93.90
2022-11-21T07:46:19.393Z,93.10
2022-11-21T07:48:48.927Z,93.40
2022-11-21T07:51:16.687Z,92.90
2022-11-21T07:53:44.399Z,93.00
2022-11-21T07:56:12.127Z,93.30
2022-11-21T07:58:40.539Z,93.20
2022-11-21T08:01:10.642Z,93.10
2022-11-21T08:03:39.672Z,93.10
2022-11-21T08:06:08.559Z,93.40
2022-11-21T08:08:36.251Z,92.80
2022-11-21T08:11:06.361Z,92.10
2022-11-21T08:13:34.381Z,91.00
2022-11-21T08:16:03.864Z,90.60
2022-11-21T08:18:32.021Z,90.00
2022-11-21T08:21:03.582Z,89.80
2022-11-21T08:23:31.415Z,88.90
2022-11-21T08:25:59.432Z,89.40
2022-11-21T08:28:28.431Z,89.20
2022-11-21T08:30:56.437Z,88.80
2022-11-21T08:33:27.794Z,89.10
2022-11-21T08:35:56.516Z,89.80
2022-11-21T08:38:28.007Z,90.50
2022-11-21T08:41:13.457Z,90.70
2022-11-21T08:43:45.235Z,91.00
2022-11-21T08:46:13.001Z,90.70
2022-11-21T08:48:41.013Z,90.90
2022-11-21T08:51:08.967Z,91.20
2022-11-21T08:53:37.956Z,91.40
2022-11-21T08:56:05.861Z,90.80
2022-11-21T08:58:33.627Z,89.30
2022-11-21T09:01:01.411Z,88.60
2022-11-21T09:03:31.412Z,88.40
2022-11-21T09:06:00.127Z,87.80
2022-11-21T09:08:28.216Z,86.80
2022-11-21T09:10:57.468Z,84.30
2022-11-21T09:13:28.246Z,84.70
2022-11-21T09:16:09.923Z,84.70
2022-11-21T09:18:40.198Z,85.70
2022-11-21T09:21:07.905Z,85.60
2022-11-21T09:23:35.716Z,87.40
2022-11-21T09:26:04.692Z,86.60
2022-11-21T09:28:32.555Z,86.40
2022-11-21T09:31:00.288Z,84.50
2022-11-21T09:33:27.977Z,83.40
2022-11-21T09:35:55.667Z,85.30
2022-11-21T09:38:24.660Z,84.40
2022-11-21T09:40:52.500Z,85.40
2022-11-21T09:43:35.860Z,84.90
2022-11-21T09:46:10.441Z,83.50
2022-11-21T09:48:48.219Z,84.30
2022-11-21T09:51:18.926Z,84.10
2022-11-21T09:53:56.286Z,82.50
2022-11-21T09:56:29.924Z,81.70
2022-11-21T09:59:15.711Z,82.90
2022-11-21T10:01:44.649Z,82.80
2022-11-21T10:04:12.952Z,83.00
2022-11-21T10:06:50.628Z,81.20
2022-11-21T10:09:28.574Z,79.70
2022-11-21T10:12:17.876Z,78.30
2022-11-21T10:14:57.608Z,78.80
2022-11-21T10:17:36.547Z,79.90
2022-11-21T10:20:23.249Z,79.40
2022-11-21T10:23:15.492Z,77.50
2022-11-21T10:25:50.456Z,77.60
2022-11-21T10:28:26.213Z,79.20
2022-11-21T10:30:57.704Z,78.50
2022-11-21T10:33:31.447Z,78.00
2022-11-21T10:36:02.532Z,79.40
2022-11-21T10:38:30.467Z,78.40
2022-11-21T10:41:05.882Z,79.20
2022-11-21T10:43:54.546Z,79.40
2022-11-21T10:46:25.221Z,79.40
2022-11-21T10:49:00.704Z,78.80
2022-11-21T10:51:39.227Z,78.40
2022-11-21T10:54:26.185Z,76.10
2022-11-21T10:57:00.463Z,76.20
2022-11-21T10:59:33.479Z,76.70
2022-11-21T11:02:21.741Z,75.70
2022-11-21T11:04:52.430Z,74.40
2022-11-21T11:07:23.440Z,73.80
2022-11-21T11:09:52.308Z,74.80
2022-11-21T11:12:49.606Z,72.90
2022-11-21T11:15:21.588Z,75.30
2022-11-21T11:17:54.978Z,74.50
2022-11-21T11:20:34.435Z,74.70
2022-11-21T11:23:16.173Z,75.90
2022-11-21T11:25:48.072Z,75.30
2022-11-21T11:28:15.890Z,75.90
2022-11-21T11:30:46.562Z,75.00
2022-11-21T11:36:15.946Z,75.00
2022-11-21T11:38:47.468Z,75.00
2022-11-21T11:41:29.190Z,77.60
2022-11-21T11:44:20.732Z,77.20
2022-11-21T11:47:12.634Z,75.80
2022-11-21T11:49:57.651Z,76.80
2022-11-21T11:52:30.592Z,77.80
2022-11-21T11:55:04.410Z,76.50
2022-11-21T11:57:33.944Z,75.60
2022-11-21T12:00:17.575Z,75.60
2022-11-21T12:02:54.239Z,75.80
2022-11-21T12:05:25.962Z,74.90
2022-11-21T12:11:21.082Z,76.00
2022-11-21T12:13:56.383Z,74.00
2022-11-21T12:16:27.720Z,75.90
2022-11-21T12:19:01.952Z,75.50
2022-11-21T12:21:30.195Z,74.40
2022-11-21T12:24:04.118Z,74.50
2022-11-21T12:26:42.094Z,74.40
2022-11-21T12:29:21.390Z,74.70
2022-11-21T12:32:07.662Z,75.00
2022-11-21T12:34:52.518Z,75.90
2022-11-21T12:37:32.369Z,76.00
2022-11-21T12:40:12.629Z,76.40
2022-11-21T12:42:52.917Z,78.00
2022-11-21T12:45:32.055Z,77.80
2022-11-21T12:48:29.986Z,77.30
2022-11-21T12:51:30.494Z,77.30
2022-11-21T12:54:21.812Z,76.80
2022-11-21T12:56:55.954Z,77.10
2022-11-21T12:59:26.453Z,75.10
2022-11-21T13:02:07.016Z,74.10
2022-11-21T13:04:38.175Z,75.80
2022-11-21T13:07:07.164Z,75.90
2022-11-21T13:09:39.271Z,75.80
2022-11-21T13:12:17.775Z,75.70
2022-11-21T13:14:52.871Z,73.60
2022-11-21T13:17:30.265Z,73.30
2022-11-21T13:20:01.280Z,72.80
2022-11-21T13:22:58.925Z,73.20
2022-11-21T13:25:47.336Z,74.00
2022-11-21T13:28:35.391Z,73.40
2022-11-21T13:31:29.331Z,73.70
2022-11-21T13:33:58.612Z,76.00
2022-11-21T13:36:42.642Z,77.30
2022-11-21T13:39:28.085Z,78.10
2022-11-21T13:42:26.488Z,77.90
2022-11-21T13:44:56.028Z,79.20
2022-11-21T13:47:48.850Z,79.30
2022-11-21T13:50:35.622Z,79.10
2022-11-21T13:53:22.707Z,78.30
2022-11-21T13:55:57.883Z,79.20
2022-11-21T13:58:38.156Z,79.10
2022-11-21T14:01:25.785Z,79.10
2022-11-21T14:04:15.730Z,79.90
2022-11-21T14:06:44.094Z,79.90
2022-11-21T14:09:28.149Z,80.40
2022-11-21T14:11:59.257Z,80.70
2022-11-21T14:14:32.590Z,81.90
2022-11-21T14:17:23.759Z,81.70
2022-11-21T14:19:53.081Z,81.40
2022-11-21T14:22:34.579Z,81.80
2022-11-21T14:25:08.559Z,81.90
2022-11-21T14:27:45.207Z,82.40
2022-11-21T14:30:29.303Z,82.70
2022-11-21T14:32:58.430Z,84.00
2022-11-21T14:35:27.050Z,83.00
2022-11-21T14:37:55.560Z,82.80
2022-11-21T14:40:26.602Z,84.20
2022-11-21T14:42:55.590Z,84.40
2022-11-21T14:45:25.848Z,84.70
2022-11-21T14:47:56.153Z,83.50
2022-11-21T14:50:30.163Z,84.20
2022-11-21T14:53:01.758Z,84.50
2022-11-21T14:55:32.229Z,84.90
2022-11-21T14:58:03.984Z,84.60
2022-11-21T15:01:02.910Z,85.50
2022-11-21T15:03:24.337Z,86.20
2022-11-21T15:06:06.336Z,85.80
2022-11-21T15:09:14.838Z,85.30
2022-11-21T15:11:34.247Z,85.50
2022-11-21T15:14:22.868Z,86.20
2022-11-21T15:16:54.574Z,85.10
2022-11-21T15:19:26.117Z,85.50
2022-11-21T15:21:59.498Z,85.40
2022-11-21T15:24:33.339Z,84.60
2022-11-21T15:27:03.181Z,84.40
2022-11-21T15:29:32.716Z,84.50
2022-11-21T15:32:15.859Z,84.50
2022-11-21T15:34:47.304Z,84.20
2022-11-21T15:37:19.775Z,84.60
2022-11-21T15:39:50.733Z,87.40
2022-11-21T15:42:37.468Z,86.90
2022-11-21T15:45:24.024Z,87.70
2022-11-21T15:47:53.131Z,88.10
2022-11-21T15:50:26.681Z,87.80
2022-11-21T15:52:57.937Z,87.30
2022-11-21T15:55:29.654Z,87.40
2022-11-21T15:57:59.585Z,87.50
2022-11-21T16:00:29.335Z,87.60
2022-11-21T16:02:59.775Z,88.30
2022-11-21T16:05:30.177Z,88.50
2022-11-21T16:08:00.952Z,88.60
2022-11-21T16:10:30.177Z,88.70
2022-11-21T16:13:00.385Z,88.80
2022-11-21T16:15:30.163Z,89.30
2022-11-21T16:17:59.316Z,89.50
2022-11-21T16:20:28.845Z,89.80
2022-11-21T16:22:57.674Z,90.10
2022-11-21T16:25:27.271Z,90.30
2022-11-21T16:28:01.745Z,90.40
2022-11-21T16:30:33.442Z,90.80
2022-11-21T16:33:03.126Z,90.80
2022-11-21T16:35:31.913Z,90.80
2022-11-21T16:37:59.639Z,91.00
2022-11-21T16:40:28.777Z,91.10
2022-11-21T16:43:08.979Z,90.80
2022-11-21T16:45:37.276Z,90.80
2022-11-21T16:48:05.405Z,91.00
2022-11-21T16:50:33.533Z,91.30
2022-11-21T16:53:01.264Z,91.40
2022-11-21T16:55:30.979Z,91.90
2022-11-21T16:57:59.241Z,92.10
2022-11-21T17:00:30.216Z,92.30
2022-11-21T17:02:58.205Z,92.40
2022-11-21T17:05:26.063Z,92.20
2022-11-21T17:07:53.834Z,92.10
2022-11-21T17:10:21.621Z,91.60
2022-11-21T17:12:50.761Z,92.00
2022-11-21T17:15:18.655Z,92.40
2022-11-21T17:17:46.412Z,92.80
2022-11-21T17:20:14.175Z,92.80
2022-11-21T17:22:41.928Z,92.80
2022-11-21T17:25:10.153Z,92.50
2022-11-21T17:27:38.455Z,92.50
2022-11-21T17:30:09.503Z,92.80
2022-11-21T17:32:37.342Z,93.00
2022-11-21T17:35:05.528Z,92.80
2022-11-21T17:37:33.369Z,93.00
2022-11-21T17:40:01.227Z,93.20
2022-11-21T17:42:29.007Z,93.20
2022-11-21T17:44:57.266Z,92.90
2022-11-21T17:47:26.396Z,93.20
2022-11-21T17:49:54.228Z,93.10
2022-11-21T17:52:21.886Z,93.30
2022-11-21T17:54:49.815Z,93.20
2022-11-21T17:57:17.846Z,92.60
2022-11-21T17:59:47.090Z,92.50
2022-11-21T18:02:14.941Z,90.60
2022-11-21T18:04:44.191Z,88.80
2022-11-21T18:07:12.626Z,87.20
2022-11-21T18:09:40.510Z,86.20
2022-11-21T18:12:08.267Z,85.50
2022-11-21T18:14:35.985Z,84.40
2022-11-21T18:17:04.745Z,83.80
2022-11-21T18:19:32.667Z,83.50
2022-11-21T18:22:01.698Z,83.00
2022-11-21T18:24:29.657Z,83.10
2022-11-21T18:26:57.558Z,83.20
2022-11-21T18:29:43.939Z,82.90
2022-11-21T18:32:11.727Z,82.60
2022-11-21T18:34:39.617Z,82.80
2022-11-21T18:37:08.635Z,82.80
2022-11-21T18:39:36.269Z,82.60
2022-11-21T18:42:03.976Z,82.90
2022-11-21T18:44:31.951Z,83.00
2022-11-21T18:46:59.678Z,83.30
2022-11-21T18:49:27.781Z,83.10
2022-11-21T18:51:55.894Z,82.90
2022-11-21T18:54:24.891Z,82.40
2022-11-21T18:56:52.939Z,83.10
2022-11-21T18:59:20.634Z,83.30
2022-11-21T19:01:49.976Z,83.20
2022-11-21T19:04:17.698Z,83.00
2022-11-21T19:06:45.403Z,83.20
2022-11-21T19:09:14.715Z,83.00
2022-11-21T19:11:43.820Z,83.00
2022-11-21T19:14:11.573Z,82.40
2022-11-21T19:16:39.431Z,82.80
2022-11-21T19:21:55.967Z,82.30
2022-11-21T19:24:23.674Z,82.70
2022-11-21T19:26:52.746Z,82.60
2022-11-21T19:29:20.478Z,82.60
2022-11-21T19:31:48.266Z,82.80
2022-11-21T19:34:16.955Z,83.20
2022-11-21T19:36:45.571Z,83.10
2022-11-21T19:39:13.739Z,83.00
2022-11-21T19:41:41.549Z,83.10
2022-11-21T19:44:11.431Z,83.70
2022-11-21T19:46:40.522Z,84.50
2022-11-21T19:49:09.427Z,86.00
2022-11-21T19:51:38.713Z,86.20
2022-11-21T19:54:07.639Z,86.70
2022-11-21T19:56:36.381Z,87.20
2022-11-21T19:59:04.359Z,87.90
2022-11-21T20:01:35.506Z,89.00
2022-11-21T20:04:05.837Z,89.30
2022-11-21T20:06:35.496Z,89.30
2022-11-21T20:09:05.466Z,90.00
2022-11-21T20:11:34.516Z,90.40
2022-11-21T20:14:02.681Z,91.00
2022-11-21T20:16:32.202Z,91.50
2022-11-21T20:19:03.377Z,92.60
2022-11-21T20:21:31.737Z,93.10
2022-11-21T20:23:59.569Z,92.70
2022-11-21T20:26:27.907Z,92.90
2022-11-21T20:28:56.053Z,93.30
2022-11-21T20:31:27.033Z,93.30
2022-11-21T20:34:00.234Z,93.40
2022-11-21T20:36:31.592Z,93.80
2022-11-21T20:39:01.142Z,94.10
2022-11-21T20:41:31.191Z,94.30
2022-11-21T20:46:49.098Z,94.30
2022-11-21T20:49:17.279Z,93.70
2022-11-21T20:54:35.315Z,94.30
2022-11-21T20:57:03.003Z,94.70
2022-11-21T20:59:30.840Z,94.70
2022-11-21T21:01:58.964Z,94.80
2022-11-21T21:04:26.664Z,95.00
2022-11-21T21:06:55.707Z,95.10
2022-11-21T21:09:23.464Z,94.90
2022-11-21T21:11:53.038Z,95.20
2022-11-21T21:14:21.550Z,95.30
2022-11-21T21:16:49.884Z,95.50
2022-11-21T21:19:18.129Z,95.70
2022-11-21T21:21:45.950Z,96.20
2022-11-21T21:24:15.486Z,96.10
2022-11-21T21:26:45.187Z,96.10
2022-11-21T21:29:14.683Z,96.10
2022-11-21T21:31:48.560Z,95.50
2022-11-21T21:34:18.694Z,95.10
2022-11-21T21:36:46.815Z,94.40
2022-11-21T21:39:15.860Z,94.40
2022-11-21T21:41:45.950Z,94.40
2022-11-21T21:44:14.264Z,94.60
2022-11-21T21:46:42.107Z,94.40
2022-11-21T21:49:10.043Z,95.00
2022-11-21T21:51:38.054Z,94.80
2022-11-21T21:54:06.383Z,94.80
2022-11-21T21:56:35.439Z,95.10
2022-11-21T21:59:03.724Z,95.40
2022-11-21T22:01:33.019Z,95.70
2022-11-21T22:04:02.782Z,95.80
2022-11-21T22:06:33.200Z,95.70
2022-11-21T22:09:01.201Z,95.90
2022-11-21T22:11:30.920Z,96.00
2022-11-21T22:14:01.757Z,95.80
2022-11-21T22:16:30.262Z,96.00
2022-11-21T22:18:58.478Z,96.10
2022-11-21T22:21:28.216Z,96.20
2022-11-21T22:24:23.423Z,96.80
2022-11-21T22:26:44.577Z,96.80
2022-11-21T22:29:13.649Z,96.80
2022-11-21T22:31:41.322Z,95.80
2022-11-21T22:34:11.078Z,96.40
2022-11-21T22:36:38.761Z,96.80
2022-11-21T22:39:06.494Z,96.80
2022-11-21T22:41:34.370Z,96.80
2022-11-21T22:44:02.136Z,96.80
2022-11-21T22:46:32.105Z,96.80
2022-11-21T22:49:00.157Z,96.80
2022-11-21T22:51:30.088Z,96.80
2022-11-21T22:53:58.392Z,96.80
2022-11-21T22:56:26.941Z,96.80
2022-11-21T22:58:55.906Z,96.80
2022-11-21T23:01:25.145Z,96.80
2022-11-21T23:03:55.399Z,96.80
2022-11-21T23:06:24.670Z,96.80
2022-11-21T23:08:53.025Z,96.80
2022-11-21T23:11:22.931Z,96.80
2022-11-21T23:13:51.185Z,96.80
2022-11-21T23:16:19.432Z,96.80
2022-11-21T23:18:47.114Z,96.80
2022-11-21T23:21:16.414Z,96.80
2022-11-21T23:23:44.723Z,96.80
2022-11-21T23:26:12.842Z,96.40
2022-11-21T23:28:40.546Z,96.40
2022-11-21T23:31:08.215Z,96.40
2022-11-21T23:33:35.927Z,96.40
2022-11-21T23:36:03.640Z,96.70
2022-11-21T23:38:32.872Z,96.80
2022-11-21T23:41:00.560Z,96.80
2022-11-21T23:43:28.283Z,96.60
2022-11-21T23:45:56.308Z,96.80
2022-11-21T23:48:24.919Z,96.70
2022-11-21T23:50:53.121Z,96.70
2022-11-21T23:53:21.453Z,96.70
2022-11-21T23:55:50.779Z,96.80
2022-11-21T23:58:18.517Z,96.80
